sensor_id;sensor_type;location;lat;lon;timestamp;temperature;humidity
47590;DHT22;33316;52.298;9.056;2023-03-12T00:01:40;1.30;82.00
47590;DHT22;33316;52.298;9.056;2023-03-12T00:04:06;1.30;82.10
47590;DHT22;33316;52.298;9.056;2023-03-12T00:06:49;1.30;82.10
47590;DHT22;33316;52.298;9.056;2023-03-12T00:09:16;1.30;82.20
47590;DHT22;33316;52.298;9.056;2023-03-12T00:11:44;1.20;82.30
47590;DHT22;33316;52.298;9.056;2023-03-12T00:14:13;1.20;82.40
47590;DHT22;33316;52.298;9.056;2023-03-12T00:16:39;1.20;82.60
47590;DHT22;33316;52.298;9.056;2023-03-12T00:19:11;1.10;82.70
47590;DHT22;33316;52.298;9.056;2023-03-12T00:21:38;1.10;82.80
47590;DHT22;33316;52.298;9.056;2023-03-12T00:24:14;1.10;82.90
47590;DHT22;33316;52.298;9.056;2023-03-12T00:26:41;1.10;83.10
47590;DHT22;33316;52.298;9.056;2023-03-12T00:29:25;1.10;83.10
47590;DHT22;33316;52.298;9.056;2023-03-12T00:31:54;1.00;83.20
47590;DHT22;33316;52.298;9.056;2023-03-12T00:34:21;1.00;83.30
47590;DHT22;33316;52.298;9.056;2023-03-12T00:36:47;1.00;83.40
47590;DHT22;33316;52.298;9.056;2023-03-12T00:39:16;1.00;83.40
47590;DHT22;33316;52.298;9.056;2023-03-12T00:41:44;1.00;83.50
47590;DHT22;33316;52.298;9.056;2023-03-12T00:44:11;1.00;83.50
47590;DHT22;33316;52.298;9.056;2023-03-12T00:46:38;1.00;83.60
47590;DHT22;33316;52.298;9.056;2023-03-12T00:49:04;0.90;83.70
47590;DHT22;33316;52.298;9.056;2023-03-12T00:51:31;0.90;83.80
47590;DHT22;33316;52.298;9.056;2023-03-12T00:53:58;0.90;83.80
47590;DHT22;33316;52.298;9.056;2023-03-12T00:56:26;0.90;83.90
47590;DHT22;33316;52.298;9.056;2023-03-12T00:58:53;0.90;83.90
47590;DHT22;33316;52.298;9.056;2023-03-12T01:01:20;0.80;83.80
47590;DHT22;33316;52.298;9.056;2023-03-12T01:03:46;0.80;83.90
47590;DHT22;33316;52.298;9.056;2023-03-12T01:06:13;0.80;83.90
47590;DHT22;33316;52.298;9.056;2023-03-12T01:08:40;0.80;84.00
47590;DHT22;33316;52.298;9.056;2023-03-12T01:11:11;0.80;84.00
47590;DHT22;33316;52.298;9.056;2023-03-12T01:13:39;0.80;84.20
47590;DHT22;33316;52.298;9.056;2023-03-12T01:16:06;0.80;84.30
47590;DHT22;33316;52.298;9.056;2023-03-12T01:18:32;0.80;84.40
47590;DHT22;33316;52.298;9.056;2023-03-12T01:20:59;0.80;84.50
47590;DHT22;33316;52.298;9.056;2023-03-12T01:23:26;0.70;84.60
47590;DHT22;33316;52.298;9.056;2023-03-12T01:25:52;0.70;84.60
47590;DHT22;33316;52.298;9.056;2023-03-12T01:28:20;0.70;84.60
47590;DHT22;33316;52.298;9.056;2023-03-12T01:30:48;0.70;84.50
47590;DHT22;33316;52.298;9.056;2023-03-12T01:33:18;0.70;84.30
47590;DHT22;33316;52.298;9.056;2023-03-12T01:35:47;0.70;84.20
47590;DHT22;33316;52.298;9.056;2023-03-12T01:38:14;0.70;84.10
47590;DHT22;33316;52.298;9.056;2023-03-12T01:40:42;0.70;84.00
47590;DHT22;33316;52.298;9.056;2023-03-12T01:43:23;0.80;84.10
47590;DHT22;33316;52.298;9.056;2023-03-12T01:46:03;0.80;84.00
47590;DHT22;33316;52.298;9.056;2023-03-12T01:48:32;0.80;83.90
47590;DHT22;33316;52.298;9.056;2023-03-12T01:50:59;0.80;83.80
47590;DHT22;33316;52.298;9.056;2023-03-12T01:53:28;0.80;83.80
47590;DHT22;33316;52.298;9.056;2023-03-12T01:55:55;0.80;83.80
47590;DHT22;33316;52.298;9.056;2023-03-12T01:58:22;0.80;83.80
47590;DHT22;33316;52.298;9.056;2023-03-12T02:00:50;0.80;83.70
47590;DHT22;33316;52.298;9.056;2023-03-12T02:03:19;0.70;83.70
47590;DHT22;33316;52.298;9.056;2023-03-12T02:05:47;0.70;83.70
47590;DHT22;33316;52.298;9.056;2023-03-12T02:08:15;0.70;83.80
47590;DHT22;33316;52.298;9.056;2023-03-12T02:10:43;0.70;83.80
47590;DHT22;33316;52.298;9.056;2023-03-12T02:13:09;0.70;83.80
47590;DHT22;33316;52.298;9.056;2023-03-12T02:15:38;0.70;83.90
47590;DHT22;33316;52.298;9.056;2023-03-12T02:18:05;0.60;83.80
47590;DHT22;33316;52.298;9.056;2023-03-12T02:20:35;0.60;83.90
47590;DHT22;33316;52.298;9.056;2023-03-12T02:23:04;0.60;83.90
47590;DHT22;33316;52.298;9.056;2023-03-12T02:25:34;0.50;84.00
47590;DHT22;33316;52.298;9.056;2023-03-12T02:28:03;0.60;84.20
47590;DHT22;33316;52.298;9.056;2023-03-12T02:30:31;0.60;84.30
47590;DHT22;33316;52.298;9.056;2023-03-12T02:32:59;0.60;84.30
47590;DHT22;33316;52.298;9.056;2023-03-12T02:35:28;0.60;84.30
47590;DHT22;33316;52.298;9.056;2023-03-12T02:37:54;0.60;84.30
47590;DHT22;33316;52.298;9.056;2023-03-12T02:40:23;0.60;84.30
47590;DHT22;33316;52.298;9.056;2023-03-12T02:42:53;0.60;84.20
47590;DHT22;33316;52.298;9.056;2023-03-12T02:45:22;0.60;84.10
47590;DHT22;33316;52.298;9.056;2023-03-12T02:47:50;0.60;84.10
47590;DHT22;33316;52.298;9.056;2023-03-12T02:50:16;0.60;84.10
47590;DHT22;33316;52.298;9.056;2023-03-12T02:52:43;0.60;84.20
47590;DHT22;33316;52.298;9.056;2023-03-12T02:55:10;0.60;84.20
47590;DHT22;33316;52.298;9.056;2023-03-12T02:57:36;0.60;85.00
47590;DHT22;33316;52.298;9.056;2023-03-12T03:00:05;0.60;84.10
47590;DHT22;33316;52.298;9.056;2023-03-12T03:02:35;0.60;84.10
47590;DHT22;33316;52.298;9.056;2023-03-12T03:05:02;0.60;84.10
47590;DHT22;33316;52.298;9.056;2023-03-12T03:07:29;0.60;84.00
47590;DHT22;33316;52.298;9.056;2023-03-12T03:09:55;0.60;84.00
47590;DHT22;33316;52.298;9.056;2023-03-12T03:12:28;0.60;83.90
47590;DHT22;33316;52.298;9.056;2023-03-12T03:14:55;0.60;83.90
47590;DHT22;33316;52.298;9.056;2023-03-12T03:17:23;0.60;83.90
47590;DHT22;33316;52.298;9.056;2023-03-12T03:19:50;0.60;84.10
47590;DHT22;33316;52.298;9.056;2023-03-12T03:22:17;0.60;84.10
47590;DHT22;33316;52.298;9.056;2023-03-12T03:24:44;0.50;84.10
47590;DHT22;33316;52.298;9.056;2023-03-12T03:27:11;0.50;84.00
47590;DHT22;33316;52.298;9.056;2023-03-12T03:29:38;0.60;84.10
47590;DHT22;33316;52.298;9.056;2023-03-12T03:32:05;0.60;84.20
47590;DHT22;33316;52.298;9.056;2023-03-12T03:34:33;0.60;84.10
47590;DHT22;33316;52.298;9.056;2023-03-12T03:37:00;0.60;84.00
47590;DHT22;33316;52.298;9.056;2023-03-12T03:39:27;0.60;84.00
47590;DHT22;33316;52.298;9.056;2023-03-12T03:41:53;0.60;84.00
47590;DHT22;33316;52.298;9.056;2023-03-12T03:44:21;0.60;84.00
47590;DHT22;33316;52.298;9.056;2023-03-12T03:46:48;0.60;84.00
47590;DHT22;33316;52.298;9.056;2023-03-12T03:49:18;0.60;84.00
47590;DHT22;33316;52.298;9.056;2023-03-12T03:51:48;0.60;84.10
47590;DHT22;33316;52.298;9.056;2023-03-12T03:54:16;0.60;84.20
47590;DHT22;33316;52.298;9.056;2023-03-12T03:56:43;0.50;84.30
47590;DHT22;33316;52.298;9.056;2023-03-12T03:59:12;0.50;84.30
47590;DHT22;33316;52.298;9.056;2023-03-12T04:01:39;0.50;84.30
47590;DHT22;33316;52.298;9.056;2023-03-12T04:04:06;0.50;84.30
47590;DHT22;33316;52.298;9.056;2023-03-12T04:06:33;0.50;84.30
47590;DHT22;33316;52.298;9.056;2023-03-12T04:09:02;0.50;85.10
47590;DHT22;33316;52.298;9.056;2023-03-12T04:11:29;0.50;84.40
47590;DHT22;33316;52.298;9.056;2023-03-12T04:13:56;0.50;84.40
47590;DHT22;33316;52.298;9.056;2023-03-12T04:16:23;0.50;84.20
47590;DHT22;33316;52.298;9.056;2023-03-12T04:18:50;0.40;84.20
47590;DHT22;33316;52.298;9.056;2023-03-12T04:21:17;0.40;84.30
47590;DHT22;33316;52.298;9.056;2023-03-12T04:23:43;0.40;84.30
47590;DHT22;33316;52.298;9.056;2023-03-12T04:26:11;0.40;84.30
47590;DHT22;33316;52.298;9.056;2023-03-12T04:28:38;0.40;84.40
47590;DHT22;33316;52.298;9.056;2023-03-12T04:31:05;0.40;84.40
47590;DHT22;33316;52.298;9.056;2023-03-12T04:33:33;0.50;84.30
47590;DHT22;33316;52.298;9.056;2023-03-12T04:36:00;0.50;84.30
47590;DHT22;33316;52.298;9.056;2023-03-12T04:38:27;0.50;84.20
47590;DHT22;33316;52.298;9.056;2023-03-12T04:40:57;0.50;84.20
47590;DHT22;33316;52.298;9.056;2023-03-12T04:43:25;0.60;84.00
47590;DHT22;33316;52.298;9.056;2023-03-12T04:45:52;0.60;83.80
47590;DHT22;33316;52.298;9.056;2023-03-12T04:48:19;0.60;83.80
47590;DHT22;33316;52.298;9.056;2023-03-12T04:50:48;0.70;83.80
47590;DHT22;33316;52.298;9.056;2023-03-12T04:53:14;0.70;83.60
47590;DHT22;33316;52.298;9.056;2023-03-12T04:55:41;0.70;83.60
47590;DHT22;33316;52.298;9.056;2023-03-12T04:58:08;0.80;83.50
47590;DHT22;33316;52.298;9.056;2023-03-12T05:00:37;0.80;83.30
47590;DHT22;33316;52.298;9.056;2023-03-12T05:03:04;0.80;83.20
47590;DHT22;33316;52.298;9.056;2023-03-12T05:05:31;0.80;83.20
47590;DHT22;33316;52.298;9.056;2023-03-12T05:07:57;0.80;83.20
47590;DHT22;33316;52.298;9.056;2023-03-12T05:10:24;0.90;83.20
47590;DHT22;33316;52.298;9.056;2023-03-12T05:12:51;0.80;83.10
47590;DHT22;33316;52.298;9.056;2023-03-12T05:15:17;0.90;83.10
47590;DHT22;33316;52.298;9.056;2023-03-12T05:17:45;0.90;83.20
47590;DHT22;33316;52.298;9.056;2023-03-12T05:20:12;0.90;83.30
47590;DHT22;33316;52.298;9.056;2023-03-12T05:22:39;0.90;83.40
47590;DHT22;33316;52.298;9.056;2023-03-12T05:25:05;0.90;83.40
47590;DHT22;33316;52.298;9.056;2023-03-12T05:27:33;0.90;83.40
47590;DHT22;33316;52.298;9.056;2023-03-12T05:29:59;0.80;83.40
47590;DHT22;33316;52.298;9.056;2023-03-12T05:32:26;0.80;83.40
47590;DHT22;33316;52.298;9.056;2023-03-12T05:34:54;0.90;83.40
47590;DHT22;33316;52.298;9.056;2023-03-12T05:37:20;0.90;83.40
47590;DHT22;33316;52.298;9.056;2023-03-12T05:39:47;0.90;83.40
47590;DHT22;33316;52.298;9.056;2023-03-12T05:42:13;0.90;83.50
47590;DHT22;33316;52.298;9.056;2023-03-12T05:44:40;0.90;83.50
47590;DHT22;33316;52.298;9.056;2023-03-12T05:47:07;0.90;83.40
47590;DHT22;33316;52.298;9.056;2023-03-12T05:49:33;1.00;83.40
47590;DHT22;33316;52.298;9.056;2023-03-12T05:52:01;1.00;83.20
47590;DHT22;33316;52.298;9.056;2023-03-12T05:54:28;1.00;83.20
47590;DHT22;33316;52.298;9.056;2023-03-12T05:56:54;1.10;82.90
47590;DHT22;33316;52.298;9.056;2023-03-12T05:59:21;1.00;82.80
47590;DHT22;33316;52.298;9.056;2023-03-12T06:01:48;1.00;82.80
47590;DHT22;33316;52.298;9.056;2023-03-12T06:04:15;1.00;82.70
47590;DHT22;33316;52.298;9.056;2023-03-12T06:06:41;1.00;82.70
47590;DHT22;33316;52.298;9.056;2023-03-12T06:09:09;1.10;82.80
47590;DHT22;33316;52.298;9.056;2023-03-12T06:11:36;1.10;82.80
47590;DHT22;33316;52.298;9.056;2023-03-12T06:14:03;1.10;82.80
47590;DHT22;33316;52.298;9.056;2023-03-12T06:16:29;1.10;82.80
47590;DHT22;33316;52.298;9.056;2023-03-12T06:18:57;1.20;82.80
47590;DHT22;33316;52.298;9.056;2023-03-12T06:21:25;1.20;82.80
47590;DHT22;33316;52.298;9.056;2023-03-12T06:23:52;1.20;82.80
47590;DHT22;33316;52.298;9.056;2023-03-12T06:26:21;1.20;82.70
47590;DHT22;33316;52.298;9.056;2023-03-12T06:28:48;1.20;82.60
47590;DHT22;33316;52.298;9.056;2023-03-12T06:31:15;1.30;82.60
47590;DHT22;33316;52.298;9.056;2023-03-12T06:33:42;1.30;82.60
47590;DHT22;33316;52.298;9.056;2023-03-12T06:36:09;1.30;82.60
47590;DHT22;33316;52.298;9.056;2023-03-12T06:38:36;1.30;82.50
47590;DHT22;33316;52.298;9.056;2023-03-12T06:41:03;1.30;82.50
47590;DHT22;33316;52.298;9.056;2023-03-12T06:43:33;1.30;82.50
47590;DHT22;33316;52.298;9.056;2023-03-12T06:46:00;1.40;82.50
47590;DHT22;33316;52.298;9.056;2023-03-12T06:48:27;1.40;82.50
47590;DHT22;33316;52.298;9.056;2023-03-12T06:50:54;1.40;82.40
47590;DHT22;33316;52.298;9.056;2023-03-12T06:53:21;1.40;82.50
47590;DHT22;33316;52.298;9.056;2023-03-12T06:55:49;1.50;82.60
47590;DHT22;33316;52.298;9.056;2023-03-12T06:58:16;1.50;82.40
47590;DHT22;33316;52.298;9.056;2023-03-12T07:00:44;1.50;82.40
47590;DHT22;33316;52.298;9.056;2023-03-12T07:03:11;1.50;82.50
47590;DHT22;33316;52.298;9.056;2023-03-12T07:05:37;1.50;82.50
47590;DHT22;33316;52.298;9.056;2023-03-12T07:08:04;1.60;82.60
47590;DHT22;33316;52.298;9.056;2023-03-12T07:10:31;1.60;82.50
47590;DHT22;33316;52.298;9.056;2023-03-12T07:12:57;1.60;82.50
47590;DHT22;33316;52.298;9.056;2023-03-12T07:15:24;1.60;82.40
47590;DHT22;33316;52.298;9.056;2023-03-12T07:17:52;1.70;82.40
47590;DHT22;33316;52.298;9.056;2023-03-12T07:20:19;1.70;82.40
47590;DHT22;33316;52.298;9.056;2023-03-12T07:22:45;1.80;82.40
47590;DHT22;33316;52.298;9.056;2023-03-12T07:25:12;1.80;83.00
47590;DHT22;33316;52.298;9.056;2023-03-12T07:27:38;1.80;82.20
47590;DHT22;33316;52.298;9.056;2023-03-12T07:30:05;1.90;82.20
47590;DHT22;33316;52.298;9.056;2023-03-12T07:32:32;1.90;82.10
47590;DHT22;33316;52.298;9.056;2023-03-12T07:35:02;1.90;82.00
47590;DHT22;33316;52.298;9.056;2023-03-12T07:37:28;2.00;82.00
47590;DHT22;33316;52.298;9.056;2023-03-12T07:39:55;2.00;82.00
47590;DHT22;33316;52.298;9.056;2023-03-12T07:42:22;2.10;81.80
47590;DHT22;33316;52.298;9.056;2023-03-12T07:44:48;2.10;81.80
47590;DHT22;33316;52.298;9.056;2023-03-12T07:47:15;2.10;81.70
47590;DHT22;33316;52.298;9.056;2023-03-12T07:49:42;2.20;81.70
47590;DHT22;33316;52.298;9.056;2023-03-12T07:52:09;2.30;81.70
47590;DHT22;33316;52.298;9.056;2023-03-12T07:54:36;2.30;81.60
47590;DHT22;33316;52.298;9.056;2023-03-12T07:57:05;2.30;81.30
47590;DHT22;33316;52.298;9.056;2023-03-12T07:59:32;2.30;81.20
47590;DHT22;33316;52.298;9.056;2023-03-12T08:01:58;2.30;80.70
47590;DHT22;33316;52.298;9.056;2023-03-12T08:04:25;2.30;80.70
47590;DHT22;33316;52.298;9.056;2023-03-12T08:06:51;2.40;80.70
47590;DHT22;33316;52.298;9.056;2023-03-12T08:09:19;2.40;80.70
47590;DHT22;33316;52.298;9.056;2023-03-12T08:11:46;2.40;80.60
47590;DHT22;33316;52.298;9.056;2023-03-12T08:14:12;2.40;80.60
47590;DHT22;33316;52.298;9.056;2023-03-12T08:16:39;2.50;80.70
47590;DHT22;33316;52.298;9.056;2023-03-12T08:19:05;2.40;80.60
47590;DHT22;33316;52.298;9.056;2023-03-12T08:21:32;2.50;80.60
47590;DHT22;33316;52.298;9.056;2023-03-12T08:23:59;2.50;80.70
47590;DHT22;33316;52.298;9.056;2023-03-12T08:26:26;2.50;80.50
47590;DHT22;33316;52.298;9.056;2023-03-12T08:28:53;2.50;80.60
47590;DHT22;33316;52.298;9.056;2023-03-12T08:31:20;2.50;80.60
47590;DHT22;33316;52.298;9.056;2023-03-12T08:33:46;2.50;80.50
47590;DHT22;33316;52.298;9.056;2023-03-12T08:36:13;2.50;80.50
47590;DHT22;33316;52.298;9.056;2023-03-12T08:38:40;2.60;80.60
47590;DHT22;33316;52.298;9.056;2023-03-12T08:41:06;2.60;80.60
47590;DHT22;33316;52.298;9.056;2023-03-12T08:43:34;2.60;80.40
47590;DHT22;33316;52.298;9.056;2023-03-12T08:46:01;2.60;80.40
47590;DHT22;33316;52.298;9.056;2023-03-12T08:48:28;2.60;80.30
47590;DHT22;33316;52.298;9.056;2023-03-12T08:50:55;2.70;80.40
47590;DHT22;33316;52.298;9.056;2023-03-12T08:53:22;2.70;80.40
47590;DHT22;33316;52.298;9.056;2023-03-12T08:55:51;2.70;80.40
47590;DHT22;33316;52.298;9.056;2023-03-12T08:58:17;2.80;80.50
47590;DHT22;33316;52.298;9.056;2023-03-12T09:00:45;2.80;80.30
47590;DHT22;33316;52.298;9.056;2023-03-12T09:03:12;2.90;80.30
47590;DHT22;33316;52.298;9.056;2023-03-12T09:05:39;2.90;80.10
47590;DHT22;33316;52.298;9.056;2023-03-12T09:08:06;3.00;80.20
47590;DHT22;33316;52.298;9.056;2023-03-12T09:10:32;3.00;80.80
47590;DHT22;33316;52.298;9.056;2023-03-12T09:12:59;3.00;79.80
47590;DHT22;33316;52.298;9.056;2023-03-12T09:15:25;3.10;79.60
47590;DHT22;33316;52.298;9.056;2023-03-12T09:17:53;3.20;79.60
47590;DHT22;33316;52.298;9.056;2023-03-12T09:20:21;3.20;79.40
47590;DHT22;33316;52.298;9.056;2023-03-12T09:22:48;3.20;79.40
47590;DHT22;33316;52.298;9.056;2023-03-12T09:25:15;3.30;79.40
47590;DHT22;33316;52.298;9.056;2023-03-12T09:27:42;3.30;79.30
47590;DHT22;33316;52.298;9.056;2023-03-12T09:30:12;3.40;79.30
47590;DHT22;33316;52.298;9.056;2023-03-12T09:32:39;3.50;79.10
47590;DHT22;33316;52.298;9.056;2023-03-12T09:35:10;3.60;78.80
47590;DHT22;33316;52.298;9.056;2023-03-12T09:37:40;3.60;78.50
47590;DHT22;33316;52.298;9.056;2023-03-12T09:40:09;3.70;78.40
47590;DHT22;33316;52.298;9.056;2023-03-12T09:42:39;3.80;78.10
47590;DHT22;33316;52.298;9.056;2023-03-12T09:45:06;3.80;77.60
47590;DHT22;33316;52.298;9.056;2023-03-12T09:47:34;3.90;77.40
47590;DHT22;33316;52.298;9.056;2023-03-12T09:50:02;3.90;76.80
47590;DHT22;33316;52.298;9.056;2023-03-12T09:52:33;3.90;76.40
47590;DHT22;33316;52.298;9.056;2023-03-12T09:55:03;3.90;77.00
47590;DHT22;33316;52.298;9.056;2023-03-12T09:57:31;4.00;77.40
47590;DHT22;33316;52.298;9.056;2023-03-12T09:59:57;4.10;77.30
47590;DHT22;33316;52.298;9.056;2023-03-12T10:02:28;4.20;76.90
47590;DHT22;33316;52.298;9.056;2023-03-12T10:04:57;4.20;77.00
47590;DHT22;33316;52.298;9.056;2023-03-12T10:07:28;4.30;77.20
47590;DHT22;33316;52.298;9.056;2023-03-12T10:12:46;4.30;77.60
47590;DHT22;33316;52.298;9.056;2023-03-12T10:15:16;4.30;77.90
47590;DHT22;33316;52.298;9.056;2023-03-12T10:17:53;4.30;78.10
47590;DHT22;33316;52.298;9.056;2023-03-12T10:20:26;4.40;78.40
47590;DHT22;33316;52.298;9.056;2023-03-12T10:22:59;4.40;78.80
47590;DHT22;33316;52.298;9.056;2023-03-12T10:25:27;4.40;79.10
47590;DHT22;33316;52.298;9.056;2023-03-12T10:27:58;4.30;79.50
47590;DHT22;33316;52.298;9.056;2023-03-12T10:30:25;4.30;80.00
47590;DHT22;33316;52.298;9.056;2023-03-12T10:32:55;4.30;80.40
47590;DHT22;33316;52.298;9.056;2023-03-12T10:35:23;4.30;80.90
47590;DHT22;33316;52.298;9.056;2023-03-12T10:37:50;4.30;81.10
47590;DHT22;33316;52.298;9.056;2023-03-12T10:40:19;4.20;81.50
47590;DHT22;33316;52.298;9.056;2023-03-12T10:42:46;4.20;81.90
47590;DHT22;33316;52.298;9.056;2023-03-12T10:45:16;4.20;82.30
47590;DHT22;33316;52.298;9.056;2023-03-12T10:47:46;4.20;82.70
47590;DHT22;33316;52.298;9.056;2023-03-12T10:50:16;4.20;83.00
47590;DHT22;33316;52.298;9.056;2023-03-12T10:52:43;4.20;83.50
47590;DHT22;33316;52.298;9.056;2023-03-12T10:55:15;4.20;83.40
47590;DHT22;33316;52.298;9.056;2023-03-12T10:57:45;4.20;83.50
47590;DHT22;33316;52.298;9.056;2023-03-12T11:00:18;4.10;83.50
47590;DHT22;33316;52.298;9.056;2023-03-12T11:02:45;4.10;83.80
47590;DHT22;33316;52.298;9.056;2023-03-12T11:05:19;4.10;83.90
47590;DHT22;33316;52.298;9.056;2023-03-12T11:07:47;4.10;84.10
47590;DHT22;33316;52.298;9.056;2023-03-12T11:10:18;4.10;84.10
47590;DHT22;33316;52.298;9.056;2023-03-12T11:12:53;4.10;84.20
47590;DHT22;33316;52.298;9.056;2023-03-12T11:15:22;4.10;84.50
47590;DHT22;33316;52.298;9.056;2023-03-12T11:17:50;4.10;84.60
47590;DHT22;33316;52.298;9.056;2023-03-12T11:20:25;4.10;84.80
47590;DHT22;33316;52.298;9.056;2023-03-12T11:22:53;4.10;85.00
47590;DHT22;33316;52.298;9.056;2023-03-12T11:25:21;4.10;86.00
47590;DHT22;33316;52.298;9.056;2023-03-12T11:27:48;4.10;85.40
47590;DHT22;33316;52.298;9.056;2023-03-12T11:30:18;4.10;85.60
47590;DHT22;33316;52.298;9.056;2023-03-12T11:32:48;4.10;86.10
47590;DHT22;33316;52.298;9.056;2023-03-12T11:35:16;4.10;86.30
47590;DHT22;33316;52.298;9.056;2023-03-12T11:37:53;4.10;86.60
47590;DHT22;33316;52.298;9.056;2023-03-12T11:40:26;4.10;86.90
47590;DHT22;33316;52.298;9.056;2023-03-12T11:43:02;4.00;87.40
47590;DHT22;33316;52.298;9.056;2023-03-12T11:45:33;4.00;87.60
47590;DHT22;33316;52.298;9.056;2023-03-12T11:48:06;4.10;88.10
47590;DHT22;33316;52.298;9.056;2023-03-12T11:50:46;4.10;88.20
47590;DHT22;33316;52.298;9.056;2023-03-12T11:53:20;4.10;88.20
47590;DHT22;33316;52.298;9.056;2023-03-12T11:56:00;4.10;88.50
47590;DHT22;33316;52.298;9.056;2023-03-12T11:58:35;4.10;88.60
47590;DHT22;33316;52.298;9.056;2023-03-12T12:01:04;4.10;89.20
47590;DHT22;33316;52.298;9.056;2023-03-12T12:06:21;4.20;89.20
47590;DHT22;33316;52.298;9.056;2023-03-12T12:08:52;4.20;89.20
47590;DHT22;33316;52.298;9.056;2023-03-12T12:11:23;4.20;89.20
47590;DHT22;33316;52.298;9.056;2023-03-12T12:13:56;4.20;89.40
47590;DHT22;33316;52.298;9.056;2023-03-12T12:19:15;4.20;89.60
47590;DHT22;33316;52.298;9.056;2023-03-12T12:21:48;4.20;89.80
47590;DHT22;33316;52.298;9.056;2023-03-12T12:24:21;4.20;89.90
47590;DHT22;33316;52.298;9.056;2023-03-12T12:26:51;4.20;89.90
47590;DHT22;33316;52.298;9.056;2023-03-12T12:29:24;4.30;90.00
47590;DHT22;33316;52.298;9.056;2023-03-12T12:31:54;4.20;90.00
47590;DHT22;33316;52.298;9.056;2023-03-12T12:34:34;4.30;90.10
47590;DHT22;33316;52.298;9.056;2023-03-12T12:37:15;4.30;90.10
47590;DHT22;33316;52.298;9.056;2023-03-12T12:39:44;4.30;90.10
47590;DHT22;33316;52.298;9.056;2023-03-12T12:42:14;4.30;90.10
47590;DHT22;33316;52.298;9.056;2023-03-12T12:44:42;4.40;90.20
47590;DHT22;33316;52.298;9.056;2023-03-12T12:47:10;4.40;90.60
47590;DHT22;33316;52.298;9.056;2023-03-12T12:49:42;4.40;90.30
47590;DHT22;33316;52.298;9.056;2023-03-12T12:52:10;4.40;90.30
47590;DHT22;33316;52.298;9.056;2023-03-12T12:54:41;4.50;90.40
47590;DHT22;33316;52.298;9.056;2023-03-12T12:57:12;4.50;90.80
47590;DHT22;33316;52.298;9.056;2023-03-12T12:59:40;4.50;90.50
47590;DHT22;33316;52.298;9.056;2023-03-12T13:02:13;4.50;90.60
47590;DHT22;33316;52.298;9.056;2023-03-12T13:04:41;4.50;90.80
47590;DHT22;33316;52.298;9.056;2023-03-12T13:09:51;4.50;90.70
47590;DHT22;33316;52.298;9.056;2023-03-12T13:12:19;4.60;90.80
47590;DHT22;33316;52.298;9.056;2023-03-12T13:14:48;4.60;90.80
47590;DHT22;33316;52.298;9.056;2023-03-12T13:17:25;4.60;90.80
47590;DHT22;33316;52.298;9.056;2023-03-12T13:19:52;4.60;90.90
47590;DHT22;33316;52.298;9.056;2023-03-12T13:22:23;4.60;91.10
47590;DHT22;33316;52.298;9.056;2023-03-12T13:24:55;4.70;91.20
47590;DHT22;33316;52.298;9.056;2023-03-12T13:27:23;4.70;91.30
47590;DHT22;33316;52.298;9.056;2023-03-12T13:29:50;4.70;91.30
47590;DHT22;33316;52.298;9.056;2023-03-12T13:35:06;4.80;91.50
47590;DHT22;33316;52.298;9.056;2023-03-12T13:37:58;4.80;91.60
47590;DHT22;33316;52.298;9.056;2023-03-12T13:43:29;4.90;91.70
47590;DHT22;33316;52.298;9.056;2023-03-12T13:45:59;4.80;91.70
47590;DHT22;33316;52.298;9.056;2023-03-12T13:48:26;4.90;91.80
47590;DHT22;33316;52.298;9.056;2023-03-12T13:50:54;4.90;91.80
47590;DHT22;33316;52.298;9.056;2023-03-12T13:53:21;4.90;91.90
47590;DHT22;33316;52.298;9.056;2023-03-12T13:55:49;5.00;92.00
47590;DHT22;33316;52.298;9.056;2023-03-12T13:58:28;5.00;92.10
47590;DHT22;33316;52.298;9.056;2023-03-12T14:00:56;5.00;92.20
47590;DHT22;33316;52.298;9.056;2023-03-12T14:03:26;5.10;92.30
47590;DHT22;33316;52.298;9.056;2023-03-12T14:05:56;5.00;92.30
47590;DHT22;33316;52.298;9.056;2023-03-12T14:08:26;5.10;92.50
47590;DHT22;33316;52.298;9.056;2023-03-12T14:11:01;5.10;92.60
47590;DHT22;33316;52.298;9.056;2023-03-12T14:13:33;5.20;92.70
47590;DHT22;33316;52.298;9.056;2023-03-12T14:16:08;5.20;92.80
47590;DHT22;33316;52.298;9.056;2023-03-12T14:18:36;5.30;93.00
47590;DHT22;33316;52.298;9.056;2023-03-12T14:21:06;5.30;93.10
47590;DHT22;33316;52.298;9.056;2023-03-12T14:23:33;5.30;93.10
47590;DHT22;33316;52.298;9.056;2023-03-12T14:26:04;5.40;93.00
47590;DHT22;33316;52.298;9.056;2023-03-12T14:28:36;5.50;93.10
47590;DHT22;33316;52.298;9.056;2023-03-12T14:31:04;5.50;93.20
47590;DHT22;33316;52.298;9.056;2023-03-12T14:33:33;5.60;93.20
47590;DHT22;33316;52.298;9.056;2023-03-12T14:36:02;5.50;93.20
47590;DHT22;33316;52.298;9.056;2023-03-12T14:38:31;5.60;93.40
47590;DHT22;33316;52.298;9.056;2023-03-12T14:40:59;5.60;93.30
47590;DHT22;33316;52.298;9.056;2023-03-12T14:43:27;5.70;93.30
47590;DHT22;33316;52.298;9.056;2023-03-12T14:45:56;5.70;93.30
47590;DHT22;33316;52.298;9.056;2023-03-12T14:48:26;5.80;93.40
47590;DHT22;33316;52.298;9.056;2023-03-12T14:50:53;5.80;93.40
47590;DHT22;33316;52.298;9.056;2023-03-12T14:53:24;5.90;93.80
47590;DHT22;33316;52.298;9.056;2023-03-12T14:56:02;5.90;93.50
47590;DHT22;33316;52.298;9.056;2023-03-12T14:58:29;5.90;93.60
47590;DHT22;33316;52.298;9.056;2023-03-12T15:00:58;6.00;93.70
47590;DHT22;33316;52.298;9.056;2023-03-12T15:03:25;6.00;93.80
47590;DHT22;33316;52.298;9.056;2023-03-12T15:05:55;6.00;93.80
47590;DHT22;33316;52.298;9.056;2023-03-12T15:08:22;6.10;94.00
47590;DHT22;33316;52.298;9.056;2023-03-12T15:10:50;6.10;94.00
47590;DHT22;33316;52.298;9.056;2023-03-12T15:13:17;6.20;94.00
47590;DHT22;33316;52.298;9.056;2023-03-12T15:15:45;6.20;94.00
47590;DHT22;33316;52.298;9.056;2023-03-12T15:18:14;6.20;94.10
47590;DHT22;33316;52.298;9.056;2023-03-12T15:20:41;6.30;94.30
47590;DHT22;33316;52.298;9.056;2023-03-12T15:23:08;6.30;94.30
47590;DHT22;33316;52.298;9.056;2023-03-12T15:25:37;6.40;94.30
47590;DHT22;33316;52.298;9.056;2023-03-12T15:28:05;6.40;94.30
47590;DHT22;33316;52.298;9.056;2023-03-12T15:30:33;6.40;94.30
47590;DHT22;33316;52.298;9.056;2023-03-12T15:33:04;6.40;94.30
47590;DHT22;33316;52.298;9.056;2023-03-12T15:35:32;6.50;94.40
47590;DHT22;33316;52.298;9.056;2023-03-12T15:37:59;6.50;94.50
47590;DHT22;33316;52.298;9.056;2023-03-12T15:40:28;6.60;94.50
47590;DHT22;33316;52.298;9.056;2023-03-12T15:42:56;6.60;94.50
47590;DHT22;33316;52.298;9.056;2023-03-12T15:45:30;6.60;94.50
47590;DHT22;33316;52.298;9.056;2023-03-12T15:47:58;6.70;94.60
47590;DHT22;33316;52.298;9.056;2023-03-12T15:50:26;6.70;94.50
47590;DHT22;33316;52.298;9.056;2023-03-12T15:53:01;6.70;94.60
47590;DHT22;33316;52.298;9.056;2023-03-12T15:55:28;6.70;94.60
47590;DHT22;33316;52.298;9.056;2023-03-12T15:57:56;6.70;94.60
47590;DHT22;33316;52.298;9.056;2023-03-12T16:00:24;6.80;94.50
47590;DHT22;33316;52.298;9.056;2023-03-12T16:02:52;6.80;94.70
47590;DHT22;33316;52.298;9.056;2023-03-12T16:05:19;6.90;94.70
47590;DHT22;33316;52.298;9.056;2023-03-12T16:07:46;6.90;94.70
47590;DHT22;33316;52.298;9.056;2023-03-12T16:10:14;6.90;94.80